createdAt,value
2023-03-08T00:01:02.132Z,-3.91
2023-03-08T00:02:10.351Z,-3.95
2023-03-08T00:03:25.759Z,-3.92
2023-03-08T00:04:32.254Z,-3.99
2023-03-08T00:05:41.762Z,-3.97
2023-03-08T00:06:50.070Z,-4.06
2023-03-08T00:07:55.972Z,-4.02
2023-03-08T00:09:09.370Z,-4.00
2023-03-08T00:10:23.015Z,-4.04
2023-03-08T00:11:29.322Z,-4.10
2023-03-08T00:12:37.707Z,-4.05
2023-03-08T00:13:42.025Z,-4.15
2023-03-08T00:14:52.203Z,-4.26
2023-03-08T00:16:03.118Z,-4.27
2023-03-08T00:17:08.156Z,-4.30
2023-03-08T00:18:11.638Z,-4.29
2023-03-08T00:19:20.831Z,-4.27
2023-03-08T00:20:30.419Z,-4.35
2023-03-08T00:21:34.491Z,-4.28
2023-03-08T00:22:42.647Z,-4.25
2023-03-08T00:23:50.563Z,-4.33
2023-03-08T00:25:06.331Z,-4.27
2023-03-08T00:26:24.233Z,-4.22
2023-03-08T00:27:32.928Z,-4.27
2023-03-08T00:28:38.915Z,-4.30
2023-03-08T00:29:46.431Z,-4.35
2023-03-08T00:31:02.943Z,-4.37
2023-03-08T00:32:11.001Z,-4.30
2023-03-08T00:33:20.866Z,-4.29
2023-03-08T00:34:25.935Z,-4.26
2023-03-08T00:35:31.706Z,-4.36
2023-03-08T00:36:38.044Z,-4.45
2023-03-08T00:38:09.567Z,-4.48
2023-03-08T00:39:16.551Z,-4.54
2023-03-08T00:40:20.728Z,-4.62
2023-03-08T00:41:25.204Z,-4.62
2023-03-08T00:44:28.419Z,-4.65
2023-03-08T00:45:43.893Z,-4.65
2023-03-08T00:46:49.318Z,-4.67
2023-03-08T00:47:57.402Z,-4.64
2023-03-08T00:49:06.882Z,-4.69
2023-03-08T00:50:17.127Z,-4.69
2023-03-08T00:51:28.342Z,-4.53
2023-03-08T00:52:34.419Z,-4.49
2023-03-08T00:53:42.081Z,-4.58
2023-03-08T00:54:54.598Z,-4.54
2023-03-08T00:56:00.398Z,-4.49
2023-03-08T00:57:07.834Z,-4.53
2023-03-08T00:58:17.778Z,-4.58
2023-03-08T00:59:25.824Z,-4.57
2023-03-08T01:00:38.961Z,-4.56
2023-03-08T01:01:43.522Z,-4.62
2023-03-08T01:02:49.974Z,-4.64
2023-03-08T01:03:56.133Z,-4.66
2023-03-08T01:05:04.949Z,-4.65
2023-03-08T01:06:16.079Z,-4.55
2023-03-08T01:07:31.039Z,-4.66
2023-03-08T01:08:43.288Z,-4.77
2023-03-08T01:09:48.572Z,-4.99
2023-03-08T01:10:59.686Z,-4.96
2023-03-08T01:12:07.392Z,-4.89
2023-03-08T01:13:21.565Z,-4.86
2023-03-08T01:14:26.377Z,-4.91
2023-03-08T01:15:43.016Z,-4.86
2023-03-08T01:16:49.831Z,-4.88
2023-03-08T01:17:54.459Z,-4.83
2023-03-08T01:19:00.998Z,-4.91
2023-03-08T01:20:13.104Z,-4.85
2023-03-08T01:21:22.916Z,-4.87
2023-03-08T01:22:34.223Z,-4.90
2023-03-08T01:23:42.465Z,-4.86
2023-03-08T01:24:50.087Z,-4.91
2023-03-08T01:26:05.349Z,-4.83
2023-03-08T01:27:11.531Z,-4.84
2023-03-08T01:28:18.577Z,-4.90
2023-03-08T01:29:27.270Z,-4.80
2023-03-08T01:30:36.482Z,-4.79
2023-03-08T01:31:43.381Z,-4.86
2023-03-08T01:32:55.304Z,-4.79
2023-03-08T01:34:00.699Z,-4.77
2023-03-08T01:36:38.006Z,-4.70
2023-03-08T01:37:45.285Z,-4.72
2023-03-08T01:38:50.519Z,-4.69
2023-03-08T01:40:06.337Z,-4.68
2023-03-08T01:41:19.372Z,-4.69
2023-03-08T01:42:30.836Z,-4.68
2023-03-08T01:43:45.120Z,-4.77
2023-03-08T01:45:00.534Z,-4.67
2023-03-08T01:46:49.817Z,-4.66
2023-03-08T01:48:13.742Z,-4.63
2023-03-08T01:49:40.531Z,-4.58
2023-03-08T01:50:54.202Z,-4.59
2023-03-08T01:52:05.730Z,-4.55
2023-03-08T01:53:18.162Z,-4.58
2023-03-08T01:54:35.863Z,-4.64
2023-03-08T01:55:43.047Z,-4.60
2023-03-08T01:58:10.183Z,-4.62
2023-03-08T01:59:17.312Z,-4.64
2023-03-08T02:00:28.723Z,-4.65
2023-03-08T02:01:37.172Z,-4.65
2023-03-08T02:02:50.951Z,-4.75
2023-03-08T02:03:56.474Z,-4.65
2023-03-08T02:05:01.739Z,-4.56
2023-03-08T02:06:32.170Z,-4.64
2023-03-08T02:07:38.879Z,-4.59
2023-03-08T02:08:44.827Z,-4.58
2023-03-08T02:09:49.566Z,-4.51
2023-03-08T02:10:55.214Z,-4.68
2023-03-08T02:12:18.736Z,-4.52
2023-03-08T02:13:27.227Z,-4.62
2023-03-08T02:14:32.973Z,-4.55
2023-03-08T02:15:36.913Z,-4.55
2023-03-08T02:16:41.710Z,-4.54
2023-03-08T02:17:49.548Z,-4.54
2023-03-08T02:19:07.775Z,-4.57
2023-03-08T02:20:33.213Z,-4.60
2023-03-08T02:21:48.158Z,-4.50
2023-03-08T02:22:54.490Z,-4.58
2023-03-08T02:24:23.078Z,-4.66
2023-03-08T02:25:34.285Z,-4.81
2023-03-08T02:26:39.905Z,-4.64
2023-03-08T02:27:46.212Z,-4.64
2023-03-08T02:28:58.404Z,-4.69
2023-03-08T02:30:14.805Z,-4.74
2023-03-08T02:32:44.316Z,-4.69
2023-03-08T02:33:49.866Z,-4.67
2023-03-08T02:34:54.773Z,-4.63
2023-03-08T02:36:02.512Z,-4.72
2023-03-08T02:37:06.644Z,-4.70
2023-03-08T02:39:02.294Z,-4.75
2023-03-08T02:40:09.938Z,-4.71
2023-03-08T02:41:20.516Z,-4.70
2023-03-08T02:42:23.866Z,-4.72
2023-03-08T02:43:33.043Z,-4.72
2023-03-08T02:44:36.586Z,-4.72
2023-03-08T02:45:43.891Z,-4.74
2023-03-08T02:46:47.305Z,-4.73
2023-03-08T02:47:53.084Z,-4.74
2023-03-08T02:48:59.070Z,-4.79
2023-03-08T02:50:05.967Z,-4.80
2023-03-08T02:51:13.637Z,-4.99
2023-03-08T02:52:19.166Z,-4.97
2023-03-08T02:53:24.117Z,-4.93
2023-03-08T02:54:28.517Z,-5.03
2023-03-08T02:55:34.433Z,-4.99
2023-03-08T02:56:47.763Z,-4.97
2023-03-08T02:57:54.113Z,-5.15
2023-03-08T02:58:59.187Z,-5.22
2023-03-08T03:00:07.622Z,-5.30
2023-03-08T03:01:16.229Z,-5.31
2023-03-08T03:02:24.896Z,-5.41
2023-03-08T03:03:33.583Z,-5.39
2023-03-08T03:04:49.005Z,-5.48
2023-03-08T03:06:00.322Z,-5.34
2023-03-08T03:07:15.473Z,-5.52
2023-03-08T03:08:20.907Z,-5.38
2023-03-08T03:09:51.021Z,-5.34
2023-03-08T03:10:56.705Z,-5.47
2023-03-08T03:12:07.362Z,-5.48
2023-03-08T03:13:20.959Z,-5.50
2023-03-08T03:14:32.049Z,-5.59
2023-03-08T03:15:40.096Z,-5.57
2023-03-08T03:16:48.692Z,-5.76
2023-03-08T03:17:55.238Z,-5.67
2023-03-08T03:19:07.463Z,-5.59
2023-03-08T03:20:12.333Z,-5.59
2023-03-08T03:21:19.793Z,-5.65
2023-03-08T03:22:25.343Z,-5.60
2023-03-08T03:23:30.590Z,-5.68
2023-03-08T03:24:37.554Z,-5.46
2023-03-08T03:25:45.760Z,-5.62
2023-03-08T03:26:53.454Z,-5.54
2023-03-08T03:27:59.701Z,-5.55
2023-03-08T03:29:09.721Z,-5.58
2023-03-08T03:30:18.308Z,-5.49
2023-03-08T03:31:29.562Z,-5.57
2023-03-08T03:33:56.268Z,-5.36
2023-03-08T03:35:06.175Z,-5.34
2023-03-08T03:36:20.388Z,-5.28
2023-03-08T03:37:28.176Z,-5.27
2023-03-08T03:38:37.097Z,-5.31
2023-03-08T03:39:43.850Z,-5.24
2023-03-08T03:41:00.450Z,-5.34
2023-03-08T03:42:05.094Z,-5.27
2023-03-08T03:43:13.755Z,-5.18
2023-03-08T03:44:17.758Z,-5.09
2023-03-08T03:45:26.800Z,-4.95
2023-03-08T03:46:34.263Z,-4.95
2023-03-08T03:47:41.749Z,-4.86
2023-03-08T03:48:55.348Z,-4.67
2023-03-08T03:50:04.388Z,-4.61
2023-03-08T03:51:26.469Z,-4.64
2023-03-08T03:52:51.495Z,-4.56
2023-03-08T03:53:56.855Z,-4.55
2023-03-08T03:55:04.100Z,-4.73
2023-03-08T03:56:35.366Z,-4.85
2023-03-08T03:57:49.732Z,-4.72
2023-03-08T03:58:58.113Z,-4.83
2023-03-08T04:00:09.311Z,-4.66
2023-03-08T04:01:28.382Z,-4.69
2023-03-08T04:02:45.317Z,-4.63
2023-03-08T04:04:01.938Z,-4.82
2023-03-08T04:05:16.271Z,-4.90
2023-03-08T04:06:32.754Z,-4.74
2023-03-08T04:07:39.558Z,-4.83
2023-03-08T04:08:44.461Z,-4.67
2023-03-08T04:09:53.633Z,-4.68
2023-03-08T04:11:29.415Z,-4.54
2023-03-08T04:12:33.993Z,-4.48
2023-03-08T04:13:55.503Z,-4.36
2023-03-08T04:15:02.619Z,-4.35
2023-03-08T04:16:15.415Z,-4.28
2023-03-08T04:17:28.164Z,-4.30
2023-03-08T04:18:35.717Z,-4.35
2023-03-08T04:19:41.615Z,-4.36
2023-03-08T04:20:54.213Z,-4.47
2023-03-08T04:22:05.263Z,-4.37
2023-03-08T04:23:18.049Z,-4.21
2023-03-08T04:24:49.538Z,-4.41
2023-03-08T04:26:02.684Z,-4.25
2023-03-08T04:27:12.547Z,-4.20
2023-03-08T04:28:16.226Z,-4.26
2023-03-08T04:29:24.349Z,-4.26
2023-03-08T04:30:31.219Z,-4.28
2023-03-08T04:31:40.259Z,-4.24
2023-03-08T04:32:49.003Z,-4.36
2023-03-08T04:33:54.809Z,-4.22
2023-03-08T04:35:08.019Z,-4.37
2023-03-08T04:36:17.309Z,-4.32
2023-03-08T04:37:23.276Z,-4.25
2023-03-08T04:38:37.600Z,-4.32
2023-03-08T04:39:46.750Z,-4.37
2023-03-08T04:41:05.584Z,-4.34
2023-03-08T04:42:37.105Z,-4.40
2023-03-08T04:43:57.464Z,-4.37
2023-03-08T04:45:21.397Z,-4.29
2023-03-08T04:46:29.357Z,-4.58
2023-03-08T04:47:40.157Z,-4.52
2023-03-08T04:48:54.474Z,-4.43
2023-03-08T04:50:01.087Z,-4.51
2023-03-08T04:51:12.414Z,-4.53
2023-03-08T04:52:17.010Z,-4.41
2023-03-08T04:53:24.142Z,-4.33
2023-03-08T04:54:31.041Z,-4.44
2023-03-08T04:55:42.271Z,-4.26
2023-03-08T04:56:59.322Z,-4.24
2023-03-08T04:58:09.976Z,-4.24
2023-03-08T04:59:25.141Z,-4.20
2023-03-08T05:00:38.366Z,-4.05
2023-03-08T05:01:45.307Z,-4.10
2023-03-08T05:02:51.157Z,-3.91
2023-03-08T05:04:01.840Z,-4.04
2023-03-08T05:05:17.041Z,-3.93
2023-03-08T05:06:40.066Z,-3.97
2023-03-08T05:08:15.490Z,-3.96
2023-03-08T05:09:26.052Z,-3.73
2023-03-08T05:10:36.047Z,-3.76
2023-03-08T05:11:41.666Z,-3.74
2023-03-08T05:14:31.543Z,-3.62
2023-03-08T05:16:03.222Z,-3.54
2023-03-08T05:17:16.856Z,-3.68
2023-03-08T05:18:25.497Z,-3.67
2023-03-08T05:19:30.008Z,-3.76
2023-03-08T05:20:43.464Z,-3.57
2023-03-08T05:21:49.554Z,-3.40
2023-03-08T05:23:15.553Z,-3.33
2023-03-08T05:24:28.904Z,-3.45
2023-03-08T05:25:48.344Z,-3.25
2023-03-08T05:26:54.299Z,-3.34
2023-03-08T05:28:03.632Z,-3.30
2023-03-08T05:29:09.306Z,-3.31
2023-03-08T05:30:17.412Z,-3.32
2023-03-08T05:31:26.914Z,-3.04
2023-03-08T05:32:46.868Z,-3.24
2023-03-08T05:33:57.374Z,-3.20
2023-03-08T05:35:20.593Z,-3.21
2023-03-08T05:36:26.964Z,-3.10
2023-03-08T05:37:38.200Z,-2.92
2023-03-08T05:38:43.429Z,-3.02
2023-03-08T05:39:50.763Z,-2.80
2023-03-08T05:42:35.450Z,-2.80
2023-03-08T05:43:42.124Z,-2.84
2023-03-08T05:45:02.786Z,-2.83
2023-03-08T05:46:19.568Z,-2.82
2023-03-08T05:47:32.583Z,-2.98
2023-03-08T05:48:42.530Z,-2.73
2023-03-08T05:49:58.189Z,-2.79
2023-03-08T05:51:19.358Z,-2.78
2023-03-08T05:52:46.106Z,-2.84
2023-03-08T05:54:05.267Z,-2.69
2023-03-08T05:55:24.729Z,-2.59
2023-03-08T05:56:30.738Z,-2.62
2023-03-08T05:57:43.924Z,-2.67
2023-03-08T06:00:22.061Z,-2.51
2023-03-08T06:01:33.409Z,-2.44
2023-03-08T06:03:07.988Z,-2.35
2023-03-08T06:04:15.425Z,-2.34
2023-03-08T06:06:50.395Z,-2.41
2023-03-08T06:08:06.791Z,-2.36
2023-03-08T06:09:14.270Z,-2.42
2023-03-08T06:10:21.566Z,-2.29
2023-03-08T06:11:33.843Z,-2.36
2023-03-08T06:12:52.713Z,-2.30
2023-03-08T06:14:27.580Z,-2.25
2023-03-08T06:15:40.594Z,-2.17
2023-03-08T06:16:50.229Z,-2.13
2023-03-08T06:17:59.040Z,-2.37
2023-03-08T06:19:08.110Z,-2.51
2023-03-08T06:20:23.995Z,-2.51
2023-03-08T06:21:53.100Z,-2.19
2023-03-08T06:23:03.152Z,-2.07
2023-03-08T06:24:14.182Z,-2.09
2023-03-08T06:25:28.539Z,-2.15
2023-03-08T06:26:42.024Z,-2.03
2023-03-08T06:27:51.593Z,-2.13
2023-03-08T06:29:21.117Z,-2.11
2023-03-08T06:30:45.949Z,-2.11
2023-03-08T06:32:20.635Z,-2.12
2023-03-08T06:33:40.458Z,-2.15
2023-03-08T06:34:56.864Z,-2.22
2023-03-08T06:36:17.841Z,-2.00
2023-03-08T06:38:01.221Z,-2.13
2023-03-08T06:39:24.110Z,-2.18
2023-03-08T06:40:42.758Z,-2.02
2023-03-08T06:41:49.677Z,-1.83
2023-03-08T06:43:02.138Z,-1.94
2023-03-08T06:44:23.553Z,-2.13
2023-03-08T06:46:21.080Z,-2.24
2023-03-08T06:47:34.291Z,-2.10
2023-03-08T06:49:23.211Z,-2.17
2023-03-08T06:50:32.861Z,-2.20
2023-03-08T06:51:45.816Z,-2.16
2023-03-08T06:55:15.384Z,-1.80
2023-03-08T06:56:26.709Z,-1.74
2023-03-08T07:04:29.769Z,-1.24
2023-03-08T07:06:14.760Z,-1.49
2023-03-08T07:20:38.598Z,-0.76
2023-03-08T07:22:03.077Z,-1.00
2023-03-08T07:23:45.362Z,-1.19
2023-03-08T07:25:07.862Z,-1.09
2023-03-08T07:29:08.051Z,-0.47
2023-03-08T07:33:30.007Z,-0.55
2023-03-08T07:34:58.580Z,-0.57
2023-03-08T07:38:17.599Z,-0.46
2023-03-08T07:39:59.088Z,-0.28
2023-03-08T07:41:35.361Z,-0.29
2023-03-08T07:43:10.386Z,-0.70
2023-03-08T07:46:29.003Z,-0.86
2023-03-08T07:49:21.224Z,-0.78
2023-03-08T07:51:32.668Z,-0.69
2023-03-08T07:52:54.471Z,-0.73
2023-03-08T07:54:30.887Z,-0.42
2023-03-08T07:55:54.120Z,-0.74
2023-03-08T07:57:36.452Z,-1.00
2023-03-08T07:58:48.684Z,-0.62
2023-03-08T08:00:23.096Z,-0.58
2023-03-08T08:01:59.277Z,-0.03
2023-03-08T08:03:25.291Z,0.55
2023-03-08T08:04:39.642Z,0.72
2023-03-08T08:08:20.593Z,1.56
2023-03-08T08:09:47.785Z,1.28
2023-03-08T08:13:24.840Z,0.39
2023-03-08T08:15:10.663Z,0.25
2023-03-08T09:07:25.711Z,0.04
2023-03-08T09:08:49.349Z,0.24
2023-03-08T09:10:33.923Z,0.17
2023-03-08T09:11:55.492Z,-0.20
2023-03-08T11:40:22.154Z,1.52
2023-03-08T11:42:14.323Z,1.17
2023-03-08T11:47:17.101Z,1.38
2023-03-08T12:43:03.456Z,0.90
2023-03-08T13:09:44.625Z,0.93
2023-03-08T13:19:36.940Z,0.83
2023-03-08T13:25:26.097Z,0.80
2023-03-08T13:42:23.250Z,0.48
